Time;durP1;ratioP1;P1;durP2;ratioP2;P2;SDS_P1;SDS_P2;PMS_P1;PMS_P2;Temp;Humidity;BMP_temperature;BMP_pressure;BME280_temperature;BME280_humidity;BME280_pressure;Samples;Min_cycle;Max_cycle;Signal;HPM_P1;HPM_P2
2022/01/03 07:02:26;;;;;;;32.03;11.17;;;;;;;7.12;29.53;100252.13;5087132;28;20620;-47
2022/01/03 07:04:55;;;;;;;35.57;13.90;;;;;;;7.14;29.32;100261.53;5086740;28;20465;-43
2022/01/03 07:07:23;;;;;;;35.50;12.57;;;;;;;7.18;30.63;100261.97;5086225;28;20433;-42
2022/01/03 07:09:50;;;;;;;29.50;11.80;;;;;;;7.23;32.61;100265.72;5046957;28;20531;-42
2022/01/03 07:12:18;;;;;;;51.63;12.37;;;;;;;7.29;35.05;100264.13;5046890;28;21264;-43
2022/01/03 07:20:17;;;;;;;40.70;14.03;;;;;;;7.48;46.35;100268.03;5046793;28;20809;-44
2022/01/03 07:22:45;;;;;;;45.90;14.17;;;;;;;7.53;49.70;100278.88;5046814;28;20513;-44
2022/01/03 07:25:12;;;;;;;43.30;12.90;;;;;;;7.58;52.86;100277.34;5046522;28;20820;-45
2022/01/03 07:27:41;;;;;;;44.27;13.93;;;;;;;7.61;54.89;100279.63;5046340;28;20432;-43
2022/01/03 07:30:10;;;;;;;37.57;13.97;;;;;;;7.66;58.15;100281.69;5046380;28;20432;-46
2022/01/03 07:32:41;;;;;;;37.23;14.67;;;;;;;7.71;60.85;100280.09;5045832;28;20430;-43
2022/01/03 07:35:13;;;;;;;38.07;13.87;;;;;;;7.71;65.32;100280.09;5040369;28;20452;-44
2022/01/03 07:37:41;;;;;;;34.80;13.07;;;;;;;7.73;67.86;100282.59;5045469;28;20436;-43
2022/01/03 07:40:09;;;;;;;35.10;12.60;;;;;;;7.76;70.61;100282.22;5045083;28;20466;-49
2022/01/03 07:42:37;;;;;;;41.90;14.40;;;;;;;7.77;72.86;100268.72;5046007;28;20434;-43
2022/01/03 07:45:05;;;;;;;49.47;12.83;;;;;;;7.80;75.11;100283.47;5046343;28;20531;-43
2022/01/03 07:47:33;;;;;;;34.60;12.07;;;;;;;7.80;76.34;100272.84;5045181;28;21147;-43
2022/01/03 07:50:03;;;;;;;42.30;12.97;;;;;;;7.85;77.86;100280.25;5045708;28;20430;-43
2022/01/03 07:52:30;;;;;;;46.57;13.60;;;;;;;7.85;78.99;100273.13;5045543;28;20479;-44
2022/01/03 07:54:58;;;;;;;39.40;12.80;;;;;;;7.87;80.68;100279.03;5045968;28;21038;-43
2022/01/03 07:57:26;;;;;;;38.20;13.30;;;;;;;7.88;81.08;100271.91;5045094;28;20884;-42
2022/01/03 07:59:55;;;;;;;46.60;13.00;;;;;;;7.89;82.09;100281.50;5045924;28;21154;-43
2022/01/03 08:02:23;;;;;;;29.47;12.50;;;;;;;7.90;81.93;100291.09;5045350;28;20428;-42
2022/01/03 08:04:51;;;;;;;41.50;13.60;;;;;;;7.87;82.38;100280.88;5045422;28;21004;-44
2022/01/03 08:07:20;;;;;;;33.40;11.13;;;;;;;7.86;82.31;100285.34;5044960;28;20438;-43
2022/01/03 08:09:48;;;;;;;43.67;13.50;;;;;;;7.87;81.95;100291.50;5064774;28;20443;-43
2022/01/03 08:12:16;;;;;;;30.57;12.80;;;;;;;7.86;82.18;100276.56;5060434;28;20477;-43
2022/01/03 08:14:45;;;;;;;46.47;12.87;;;;;;;7.89;82.43;100290.28;5051757;28;20487;-42
2022/01/03 08:17:13;;;;;;;38.23;13.03;;;;;;;7.92;82.72;100284.59;5052004;28;20428;-43
2022/01/03 08:19:41;;;;;;;36.27;14.00;;;;;;;7.91;83.31;100288.28;5032137;28;20474;-45
2022/01/03 08:22:09;;;;;;;34.50;13.23;;;;;;;7.88;84.85;100293.13;5032143;28;20502;-42
2022/01/03 08:24:38;;;;;;;50.77;13.37;;;;;;;7.87;84.28;100280.88;5031592;28;20436;-41
2022/01/03 08:27:05;;;;;;;48.23;14.90;;;;;;;7.87;84.42;100280.88;5032039;28;20440;-44
2022/01/03 08:29:33;;;;;;;27.70;12.70;;;;;;;7.90;83.98;100289.28;5031209;28;20464;-43
2022/01/03 08:32:00;;;;;;;30.80;11.60;;;;;;;7.92;83.33;100297.03;5031673;28;21147;-42
2022/01/03 08:34:28;;;;;;;36.40;13.30;;;;;;;7.93;82.45;100294.22;5031437;28;20455;-44
2022/01/03 08:36:56;;;;;;;35.90;12.13;;;;;;;7.94;82.74;100292.38;5031412;28;20432;-43
2022/01/03 08:39:24;;;;;;;50.93;13.80;;;;;;;7.97;83.01;100292.00;5031331;28;20471;-44
2022/01/03 08:41:53;;;;;;;40.93;12.57;;;;;;;8.02;83.46;100279.78;5031509;28;20435;-44
2022/01/03 08:44:20;;;;;;;33.30;13.90;;;;;;;8.04;84.17;100284.91;5031089;28;20436;-43
2022/01/03 08:46:49;;;;;;;36.30;13.40;;;;;;;8.05;84.36;100291.88;5031014;28;20432;-43
2022/01/03 08:49:17;;;;;;;44.63;14.97;;;;;;;8.08;85.84;100287.00;5030533;28;20461;-43
2022/01/03 08:51:45;;;;;;;33.30;11.97;;;;;;;8.12;86.18;100284.78;5031299;28;20472;-44
2022/01/03 08:54:13;;;;;;;42.00;13.87;;;;;;;8.08;86.62;100294.97;5031107;28;20524;-42
2022/01/03 08:56:41;;;;;;;44.10;14.90;;;;;;;8.11;86.10;100297.25;5031055;28;20539;-42
2022/01/03 08:59:10;;;;;;;44.23;12.77;;;;;;;8.11;86.50;100294.59;5030143;28;21072;-42
2022/01/03 09:01:38;;;;;;;36.50;12.80;;;;;;;8.17;86.33;100306.28;5030992;28;20479;-42
2022/01/03 09:04:05;;;;;;;43.27;12.57;;;;;;;8.19;86.55;100289.13;5030758;28;20441;-42
2022/01/03 09:06:35;;;;;;;45.23;12.23;;;;;;;8.17;86.82;100291.16;5030126;28;20466;-44
2022/01/03 09:09:03;;;;;;;38.37;13.77;;;;;;;8.18;86.79;100297.31;5030492;28;20464;-43
2022/01/03 09:11:31;;;;;;;40.03;13.23;;;;;;;8.19;87.42;100299.75;5031113;28;20849;-44
2022/01/03 09:13:59;;;;;;;40.40;13.80;;;;;;;8.21;87.05;100289.75;5030856;28;20440;-43
2022/01/03 09:16:28;;;;;;;34.70;12.50;;;;;;;8.24;87.91;100304.50;5030559;28;20881;-43
2022/01/03 09:18:55;;;;;;;44.83;14.23;;;;;;;8.24;88.45;100302.63;5030455;28;20468;-44
2022/01/03 09:21:23;;;;;;;35.53;12.13;;;;;;;8.22;88.51;100295.88;5030680;28;20532;-43
2022/01/03 09:24:04;;;;;;;33.10;13.10;;;;;;;8.24;88.79;100310.59;5029862;28;20440;-46
2022/01/03 09:29:17;;;;;;;30.57;11.53;;;;;;;8.32;89.50;100305.22;5029801;28;20463;-43
2022/01/03 09:31:46;;;;;;;29.73;13.50;;;;;;;8.31;90.02;100297.41;5030322;28;20475;-43
2022/01/03 09:34:14;;;;;;;32.07;12.20;;;;;;;8.31;89.13;100298.25;5030459;28;20535;-43
2022/01/03 09:36:41;;;;;;;41.60;13.17;;;;;;;8.35;89.20;100304.00;5030492;28;20456;-42
2022/01/03 09:39:09;;;;;;;37.90;13.93;;;;;;;8.42;89.81;100288.13;5029713;28;20584;-45
2022/01/03 09:41:44;;;;;;;32.43;14.03;;;;;;;8.45;90.02;100287.72;5030101;28;20964;-41
2022/01/03 09:44:12;;;;;;;46.27;13.60;;;;;;;8.49;90.81;100300.41;5029997;28;20507;-43
2022/01/03 09:46:42;;;;;;;34.20;13.77;;;;;;;8.48;91.00;100301.44;5029826;28;20491;-42
2022/01/03 09:49:14;;;;;;;35.83;14.00;;;;;;;8.52;91.08;100296.53;5029567;28;20893;-43
2022/01/03 09:51:45;;;;;;;32.93;11.30;;;;;;;8.51;91.49;100295.72;5030153;28;20441;-43
2022/01/03 09:54:15;;;;;;;35.50;13.50;;;;;;;8.57;91.96;100296.81;5029895;28;20539;-44
2022/01/03 09:56:44;;;;;;;34.73;13.77;;;;;;;8.60;92.11;100291.09;5030257;28;20474;-42
2022/01/03 09:59:13;;;;;;;28.20;12.57;;;;;;;8.60;92.78;100293.75;5029515;28;20478;-45
2022/01/03 10:01:42;;;;;;;31.27;11.43;;;;;;;8.63;92.91;100291.50;5022503;28;20532;-43
2022/01/03 10:04:14;;;;;;;33.33;13.70;;;;;;;8.67;93.10;100286.63;5014601;28;20482;-43
2022/01/03 10:06:42;;;;;;;44.30;12.53;;;;;;;8.75;93.61;100279.31;5011628;28;20529;-46
2022/01/03 10:09:10;;;;;;;42.80;13.00;;;;;;;8.75;93.96;100289.16;5022380;28;20479;-42
2022/01/03 10:11:38;;;;;;;44.40;12.80;;;;;;;8.69;94.12;100301.38;5030143;28;20442;-41
2022/01/03 10:14:11;;;;;;;35.90;12.20;;;;;;;8.68;94.32;100293.59;5029924;28;20479;-42
2022/01/03 10:16:39;;;;;;;36.87;12.83;;;;;;;8.69;93.69;100289.94;5029999;28;20499;-44
2022/01/03 10:19:17;;;;;;;40.67;12.37;;;;;;;8.77;93.95;100297.75;5029289;28;20468;-44
2022/01/03 10:21:46;;;;;;;27.90;11.43;;;;;;;8.90;94.61;100289.81;5029744;28;21117;-47
2022/01/03 10:24:16;;;;;;;43.30;12.60;;;;;;;8.96;95.29;100296.22;5029808;28;21192;-42
2022/01/03 10:26:52;;;;;;;44.50;12.40;;;;;;;9.03;95.15;100281.09;5023784;28;20436;-44
2022/01/03 10:29:21;;;;;;;24.30;12.27;;;;;;;9.03;95.34;100271.28;5019265;28;20488;-43
2022/01/03 10:31:52;;;;;;;33.90;13.20;;;;;;;9.04;95.43;100280.09;5020299;28;20444;-45
2022/01/03 10:34:23;;;;;;;39.23;12.87;;;;;;;8.97;95.46;100272.09;5020310;28;20973;-42
2022/01/03 10:36:53;;;;;;;40.27;13.20;;;;;;;8.94;95.20;100275.13;5019991;28;21159;-45
2022/01/03 10:39:22;;;;;;;48.60;13.97;;;;;;;8.92;95.05;100273.69;5020158;28;20566;-44
2022/01/03 10:41:51;;;;;;;35.87;13.37;;;;;;;8.88;94.85;100284.72;5019695;28;20475;-42
2022/01/03 10:44:34;;;;;;;49.43;12.77;;;;;;;8.90;94.61;100264.06;5019244;28;20438;-42
2022/01/03 10:47:04;;;;;;;30.17;10.60;;;;;;;8.96;94.85;100266.97;5019905;28;20445;-43
2022/01/03 10:49:33;;;;;;;25.70;12.10;;;;;;;9.00;95.02;100269.03;5018767;28;20471;-43
2022/01/03 10:52:19;;;;;;;41.07;12.23;;;;;;;8.92;95.26;100273.69;5019323;28;20445;-42
2022/01/03 10:55:10;;;;;;;39.27;11.90;;;;;;;8.96;94.82;100262.44;5019582;28;20471;-42
2022/01/03 10:58:03;;;;;;;37.57;12.73;;;;;;;8.93;94.65;100260.19;5018912;28;20535;-42
2022/01/03 11:00:33;;;;;;;37.27;12.90;;;;;;;8.96;94.81;100254.47;5005577;28;20449;-43
2022/01/03 11:03:17;;;;;;;39.53;12.73;;;;;;;8.98;94.93;100255.13;5019717;28;20434;-43
2022/01/03 11:05:51;;;;;;;34.20;12.10;;;;;;;8.95;95.03;100254.69;5018681;28;20953;-44
2022/01/03 11:11:07;;;;;;;32.67;11.50;;;;;;;8.92;94.95;100249.75;4989369;28;20957;-43
2022/01/03 11:13:38;;;;;;;32.93;12.93;;;;;;;8.93;95.01;100251.41;5018692;28;20479;-44
2022/01/03 11:16:08;;;;;;;37.43;11.63;;;;;;;8.99;94.98;100259.41;5018909;28;20999;-42
2022/01/03 11:18:38;;;;;;;39.17;11.60;;;;;;;8.93;95.22;100251.41;5018109;28;20500;-43
2022/01/03 11:21:11;;;;;;;31.83;11.43;;;;;;;8.90;95.34;100247.28;5019636;28;20424;-43
2022/01/03 11:23:41;;;;;;;35.90;12.83;;;;;;;8.92;95.30;100234.63;5019438;28;20532;-44
2022/01/03 11:26:10;;;;;;;41.20;11.67;;;;;;;8.97;95.17;100242.00;5019768;28;20985;-44
2022/01/03 11:28:39;;;;;;;44.70;11.30;;;;;;;8.95;95.27;100236.91;5017895;28;20471;-43
2022/01/03 11:31:08;;;;;;;39.20;13.20;;;;;;;8.89;95.28;100235.03;5019868;28;20432;-44
2022/01/03 11:33:36;;;;;;;35.73;11.53;;;;;;;8.93;95.10;100224.81;5017878;28;20572;-43
2022/01/03 11:36:26;;;;;;;40.57;12.13;;;;;;;8.96;95.09;100222.56;5018012;28;20454;-44
2022/01/03 11:38:55;;;;;;;37.43;12.47;;;;;;;8.92;95.38;100218.69;5018249;28;20467;-43
2022/01/03 11:41:24;;;;;;;37.97;12.50;;;;;;;8.82;95.29;100216.38;5018902;28;20520;-43
2022/01/03 11:43:52;;;;;;;50.23;13.50;;;;;;;8.79;95.16;100200.81;5016649;28;20529;-46
2022/01/03 11:46:19;;;;;;;41.30;11.73;;;;;;;8.84;95.24;100197.59;5017709;28;20990;-45
2022/01/03 11:48:47;;;;;;;42.27;13.27;;;;;;;8.78;95.19;100193.06;5021294;28;20464;-43
2022/01/03 11:51:15;;;;;;;28.63;12.03;;;;;;;8.70;95.22;100201.19;5022425;28;20524;-43
2022/01/03 11:53:47;;;;;;;31.90;12.33;;;;;;;8.67;95.36;100196.25;5021553;28;20477;-42
2022/01/03 11:56:17;;;;;;;19.43;10.37;;;;;;;8.61;95.03;100199.69;5022080;28;20449;-42
2022/01/03 11:58:55;;;;;;;26.47;10.10;;;;;;;8.65;95.04;100196.47;5021999;28;20472;-42
2022/01/03 12:04:12;;;;;;;38.33;11.53;;;;;;;8.88;95.18;100182.84;5022303;28;20849;-43
2022/01/03 12:06:41;;;;;;;30.13;9.77;;;;;;;8.91;95.58;100179.78;5021402;28;20461;-43
2022/01/03 12:09:12;;;;;;;32.27;12.63;;;;;;;8.95;95.31;100173.06;5022878;28;20460;-43
2022/01/03 12:11:44;;;;;;;28.83;10.43;;;;;;;8.99;95.27;100186.78;5021743;28;20969;-42
2022/01/03 12:14:14;;;;;;;41.23;10.60;;;;;;;8.95;95.47;100180.22;5022247;28;20473;-43
2022/01/03 12:16:52;;;;;;;33.90;11.67;;;;;;;8.97;95.15;100167.53;5026387;28;20452;-44
2022/01/03 12:19:32;;;;;;;35.90;12.23;;;;;;;8.96;95.24;100171.25;5024826;28;20454;-43
2022/01/03 12:22:06;;;;;;;47.90;12.60;;;;;;;8.92;95.28;100176.13;5031810;28;20512;-42
2022/01/03 12:24:53;;;;;;;25.27;10.17;;;;;;;9.00;95.14;100165.31;5031666;28;21142;-42
2022/01/03 12:27:54;;;;;;;40.20;10.47;;;;;;;9.03;95.22;100164.91;5031924;28;20428;-42
2022/01/03 12:30:25;;;;;;;29.23;10.87;;;;;;;9.06;95.18;100177.81;5020754;28;21398;-44
2022/01/03 12:33:17;;;;;;;30.73;11.40;;;;;;;9.15;95.27;100157.16;5031753;28;20519;-42
2022/01/03 12:35:47;;;;;;;29.23;12.70;;;;;;;9.12;95.07;100154.91;5031633;28;20514;-44
2022/01/03 12:38:23;;;;;;;33.83;12.63;;;;;;;9.11;95.29;100164.72;5031308;28;20464;-43
2022/01/03 12:40:55;;;;;;;31.23;11.77;;;;;;;9.09;95.04;100165.94;5031462;28;20882;-43
2022/01/03 12:43:50;;;;;;;38.57;12.07;;;;;;;9.09;95.02;100161.44;5028544;28;20433;-43
2022/01/03 12:46:23;;;;;;;30.57;10.70;;;;;;;9.09;95.08;100156.13;5023729;28;20498;-42
2022/01/03 12:48:55;;;;;;;46.57;12.90;;;;;;;9.15;95.10;100152.66;5030728;28;20468;-41
2022/01/03 12:51:35;;;;;;;24.13;10.03;;;;;;;9.17;95.12;100155.13;5029982;28;20991;-42
2022/01/03 12:54:07;;;;;;;25.20;10.63;;;;;;;9.11;95.02;100148.75;5030302;28;20567;-43
2022/01/03 12:56:37;;;;;;;32.13;10.47;;;;;;;9.08;95.07;100140.38;5030756;28;20961;-43
2022/01/03 12:59:14;;;;;;;37.30;11.10;;;;;;;9.04;94.94;100144.44;5030539;28;20551;-46
2022/01/03 13:01:43;;;;;;;34.97;11.63;;;;;;;9.05;95.07;100140.78;5031078;28;20525;-43
2022/01/03 13:04:22;;;;;;;33.03;10.90;;;;;;;9.03;94.93;100142.81;5031212;28;20482;-46
2022/01/03 13:06:50;;;;;;;38.43;10.63;;;;;;;8.98;95.05;100143.41;5030349;28;20432;-45
2022/01/03 13:09:19;;;;;;;27.07;9.20;;;;;;;9.03;95.17;100142.81;5030767;28;20471;-43
2022/01/03 13:11:50;;;;;;;25.47;10.87;;;;;;;9.05;94.92;100127.47;5030815;28;20432;-42
2022/01/03 13:14:20;;;;;;;32.33;12.20;;;;;;;9.10;94.93;100135.66;5030548;28;20555;-43
2022/01/03 13:16:50;;;;;;;30.10;9.87;;;;;;;9.02;94.77;100130.56;5030433;28;20432;-46
2022/01/03 13:19:20;;;;;;;30.13;11.93;;;;;;;9.06;94.91;100121.13;5028786;28;20506;-42
2022/01/03 13:21:50;;;;;;;28.70;11.17;;;;;;;8.91;94.99;100115.97;5029313;28;20962;-43
2022/01/03 13:24:20;;;;;;;26.60;11.63;;;;;;;8.90;95.10;100114.34;5029227;28;20428;-44
2022/01/03 13:27:15;;;;;;;48.90;13.30;;;;;;;8.91;95.10;100123.97;5029516;28;20437;-43
2022/01/03 13:29:45;;;;;;;39.63;13.00;;;;;;;8.89;94.86;100120.69;5015116;28;20549;-44
2022/01/03 13:32:18;;;;;;;35.87;11.97;;;;;;;8.88;94.94;100119.88;5029416;28;20876;-42
2022/01/03 13:34:47;;;;;;;28.60;11.07;;;;;;;8.89;94.95;100116.19;5028428;28;20490;-43
2022/01/03 13:37:15;;;;;;;46.97;14.37;;;;;;;8.83;94.85;100116.16;5030254;28;20539;-45
2022/01/03 13:39:45;;;;;;;37.50;12.80;;;;;;;8.84;94.90;100115.97;5030045;28;20551;-43
2022/01/03 13:42:18;;;;;;;36.33;10.80;;;;;;;8.82;94.96;100114.53;5030324;28;20438;-45
2022/01/03 13:50:25;;;;;;;41.90;10.83;;;;;;;8.83;94.76;100108.19;5030542;28;20546;-43
2022/01/03 13:52:54;;;;;;;27.17;11.60;;;;;;;8.84;94.76;100104.53;5029237;28;20532;-43
2022/01/03 13:55:24;;;;;;;36.83;11.73;;;;;;;8.89;94.88;100102.91;5029184;28;20478;-44
2022/01/03 13:58:01;;;;;;;32.07;12.70;;;;;;;8.86;94.82;100100.66;5029768;28;20456;-44
2022/01/03 14:00:29;;;;;;;30.10;10.70;;;;;;;8.87;94.47;100112.06;5030342;28;20523;-45
2022/01/03 14:02:58;;;;;;;25.40;9.83;;;;;;;8.77;94.63;100098.34;5030128;28;20440;-43
2022/01/03 14:05:26;;;;;;;24.60;9.63;;;;;;;8.71;94.49;100102.66;5024614;28;20472;-42
2022/01/03 14:07:59;;;;;;;37.37;11.10;;;;;;;8.71;94.84;100112.44;5012216;28;20552;-44
2022/01/03 14:10:41;;;;;;;36.90;12.60;;;;;;;8.71;94.62;100093.84;5014742;28;20428;-47
2022/01/03 14:13:13;;;;;;;29.43;12.50;;;;;;;8.66;94.76;100104.25;5020829;28;20631;-43
2022/01/03 14:16:03;;;;;;;31.00;12.20;;;;;;;8.65;94.58;100102.63;5029595;28;20476;-46
2022/01/03 14:18:35;;;;;;;27.03;9.50;;;;;;;8.58;94.96;100101.75;5029492;28;20483;-44
2022/01/03 14:21:08;;;;;;;31.87;11.03;;;;;;;8.62;94.63;100108.34;5029857;28;20436;-43
2022/01/03 14:23:36;;;;;;;37.87;11.30;;;;;;;8.63;94.59;100086.84;5029481;28;20447;-43
2022/01/03 14:26:15;;;;;;;37.37;10.67;;;;;;;8.61;94.73;100093.38;5029467;28;20456;-43
2022/01/03 14:29:07;;;;;;;27.87;10.97;;;;;;;8.58;94.98;100096.44;5029189;28;20479;-43
2022/01/03 14:31:46;;;;;;;31.47;9.97;;;;;;;8.53;94.84;100096.22;5029969;28;20428;-42
2022/01/03 14:34:24;;;;;;;41.33;11.10;;;;;;;8.43;94.88;100096.59;5028620;28;20444;-43
2022/01/03 14:36:53;;;;;;;31.83;10.10;;;;;;;8.38;95.02;100093.72;5029240;28;20436;-43
2022/01/03 14:39:21;;;;;;;35.13;11.90;;;;;;;8.37;94.98;100085.94;5029031;28;20468;-43
2022/01/03 14:42:01;;;;;;;28.53;10.10;;;;;;;8.28;95.13;100085.28;5029262;28;20459;-42
2022/01/03 14:44:32;;;;;;;35.83;12.57;;;;;;;8.26;95.11;100087.31;5026425;28;20439;-42
2022/01/03 14:47:04;;;;;;;25.40;10.27;;;;;;;8.21;95.26;100092.41;5029532;28;20421;-42
2022/01/03 14:49:32;;;;;;;32.33;11.10;;;;;;;8.11;94.63;100090.09;5029353;28;20461;-42
2022/01/03 14:52:01;;;;;;;36.67;11.47;;;;;;;8.06;94.64;100089.03;5029668;28;20437;-44
2022/01/03 14:54:32;;;;;;;36.50;11.27;;;;;;;8.01;94.47;100075.50;5029190;28;20575;-43
2022/01/03 14:57:16;;;;;;;36.77;12.93;;;;;;;7.99;94.43;100085.53;5029788;28;20468;-42
2022/01/03 14:59:45;;;;;;;40.57;13.27;;;;;;;7.92;94.74;100087.31;5029145;28;20467;-42
2022/01/03 15:02:12;;;;;;;23.73;10.07;;;;;;;7.89;93.87;100077.91;5029372;28;20444;-45
2022/01/03 15:04:40;;;;;;;30.70;10.53;;;;;;;7.87;94.36;100082.59;5029160;28;20521;-43
2022/01/03 15:07:27;;;;;;;31.47;11.47;;;;;;;7.86;94.48;100066.84;5028823;28;21187;-43
2022/01/03 15:09:55;;;;;;;38.47;11.90;;;;;;;7.86;94.46;100058.88;5029408;28;20515;-42
2022/01/03 15:12:43;;;;;;;33.47;10.80;;;;;;;7.85;93.95;100051.97;5029135;28;20447;-44
2022/01/03 15:15:13;;;;;;;37.87;11.17;;;;;;;7.82;94.36;100056.63;5029336;28;20512;-43
2022/01/03 15:17:41;;;;;;;39.43;11.20;;;;;;;7.80;94.25;100047.22;5028885;28;20804;-42
2022/01/03 15:20:12;;;;;;;25.07;10.00;;;;;;;7.78;93.56;100049.25;5029278;28;20442;-43
2022/01/03 15:22:41;;;;;;;32.73;10.50;;;;;;;7.80;93.95;100044.56;5031112;28;20436;-45
2022/01/03 15:25:09;;;;;;;36.83;10.83;;;;;;;7.77;93.44;100055.56;5033463;28;20458;-44
2022/01/03 15:27:38;;;;;;;32.57;10.80;;;;;;;7.78;93.30;100049.25;5032731;28;20447;-44
2022/01/03 15:30:07;;;;;;;45.30;14.03;;;;;;;7.77;93.20;100056.41;5033731;28;20947;-43
2022/01/03 15:32:37;;;;;;;26.73;11.30;;;;;;;7.79;92.84;100057.00;5033468;28;20794;-42
2022/01/03 15:35:05;;;;;;;42.23;11.50;;;;;;;7.78;93.16;100055.41;5033391;28;20488;-42
2022/01/03 15:37:33;;;;;;;37.83;10.90;;;;;;;7.77;92.70;100044.97;5032788;28;20436;-44
2022/01/03 15:40:01;;;;;;;44.53;11.00;;;;;;;7.73;92.47;100054.34;5033152;28;20537;-43
2022/01/03 15:42:29;;;;;;;54.77;12.03;;;;;;;7.72;92.56;100058.81;5033005;28;20438;-43
2022/01/03 15:44:56;;;;;;;35.43;11.33;;;;;;;7.71;91.82;100057.19;5033147;28;20458;-43
2022/01/03 15:47:24;;;;;;;39.30;11.40;;;;;;;7.72;91.77;100042.06;5032335;28;20467;-44
2022/01/03 15:49:53;;;;;;;33.00;11.50;;;;;;;7.68;92.33;100038.97;5033205;28;20440;-43
2022/01/03 15:52:22;;;;;;;29.33;10.90;;;;;;;7.69;91.85;100048.59;5033260;28;20490;-46
2022/01/03 15:54:49;;;;;;;30.37;11.50;;;;;;;7.71;91.96;100040.44;5033212;28;20821;-45
2022/01/03 15:57:17;;;;;;;29.13;10.77;;;;;;;7.69;91.83;100048.59;5032927;28;20432;-42
2022/01/03 15:59:46;;;;;;;41.70;12.23;;;;;;;7.70;92.56;100038.81;5032786;28;20474;-45
2022/01/03 16:02:14;;;;;;;28.30;10.47;;;;;;;7.69;91.98;100043.28;5033241;28;20474;-43
2022/01/03 16:04:42;;;;;;;32.00;11.50;;;;;;;7.71;92.26;100041.25;5033253;28;20463;-43
2022/01/03 16:07:10;;;;;;;33.77;9.60;;;;;;;7.70;92.08;100028.19;5032894;28;20433;-46
2022/01/03 16:09:38;;;;;;;30.63;9.87;;;;;;;7.64;92.07;100031.63;5032584;28;21059;-42
2022/01/03 16:12:06;;;;;;;29.33;11.00;;;;;;;7.62;92.37;100026.50;5033234;28;20797;-44
2022/01/03 16:14:34;;;;;;;36.60;10.67;;;;;;;7.60;91.79;100033.00;5032703;28;20458;-44
2022/01/03 16:17:03;;;;;;;31.37;11.20;;;;;;;7.58;91.30;100035.06;5032349;28;20468;-43
2022/01/03 16:19:31;;;;;;;41.80;11.00;;;;;;;7.56;90.70;100023.78;5032141;28;20555;-43
2022/01/03 16:21:59;;;;;;;39.73;12.47;;;;;;;7.56;90.88;100018.50;5032760;28;20432;-42
2022/01/03 16:24:28;;;;;;;42.20;12.40;;;;;;;7.57;90.81;100028.09;5032139;28;20967;-44
2022/01/03 16:26:56;;;;;;;35.63;12.30;;;;;;;7.53;90.29;100025.00;5032613;28;20496;-43
2022/01/03 16:29:24;;;;;;;36.50;10.87;;;;;;;7.55;90.47;100027.47;5032243;28;20464;-45
2022/01/03 16:31:55;;;;;;;35.63;10.67;;;;;;;7.55;90.75;100030.13;5032338;28;20443;-43
2022/01/03 16:34:22;;;;;;;36.20;11.03;;;;;;;7.53;90.68;100024.19;5021828;28;20468;-43
2022/01/03 16:36:50;;;;;;;35.73;11.53;;;;;;;7.46;91.44;100018.84;5022843;28;20490;-45
2022/01/03 16:39:18;;;;;;;34.57;11.97;;;;;;;7.45;90.66;100019.84;5022389;28;20466;-42
2022/01/03 16:41:47;;;;;;;35.03;10.67;;;;;;;7.43;91.07;100013.94;5022803;28;20987;-42
2022/01/03 16:44:14;;;;;;;36.27;12.03;;;;;;;7.41;90.89;100018.59;5020874;28;20451;-43
2022/01/03 16:46:42;;;;;;;30.50;10.30;;;;;;;7.39;89.46;99999.41;5020785;28;20454;-43
2022/01/03 16:49:10;;;;;;;31.90;12.07;;;;;;;7.44;88.67;100006.78;5021960;28;20467;-43
2022/01/03 16:51:38;;;;;;;32.33;11.30;;;;;;;7.46;88.63;100000.28;5022278;28;20443;-42
2022/01/03 16:54:07;;;;;;;31.83;10.50;;;;;;;7.50;88.65;99993.56;5022159;28;20535;-44
2022/01/03 16:56:35;;;;;;;27.50;12.60;;;;;;;7.56;89.37;99997.25;5022601;28;20495;-42
2022/01/03 16:59:04;;;;;;;29.63;10.07;;;;;;;7.58;89.71;99993.44;5021913;28;20461;-43
2022/01/03 17:01:31;;;;;;;31.70;10.57;;;;;;;7.61;90.26;99992.22;5021221;28;20449;-42
2022/01/03 17:04:00;;;;;;;33.70;11.07;;;;;;;7.63;89.96;99992.81;5023285;28;20448;-43
2022/01/03 17:06:28;;;;;;;30.13;10.30;;;;;;;7.64;89.68;99986.50;5021735;28;20500;-43
2022/01/03 17:08:56;;;;;;;43.33;13.97;;;;;;;7.69;90.34;99997.34;5021358;28;20841;-43
2022/01/03 17:11:24;;;;;;;29.00;10.73;;;;;;;7.70;90.17;99980.41;5020854;28;20440;-43
2022/01/03 17:13:51;;;;;;;38.57;12.17;;;;;;;7.72;90.02;99987.16;5021737;28;20447;-43
2022/01/03 17:16:22;;;;;;;27.87;10.60;;;;;;;7.69;90.93;99979.59;5021045;28;20491;-44
2022/01/03 17:18:49;;;;;;;30.77;12.37;;;;;;;7.74;90.54;99985.13;5021768;28;20468;-44
2022/01/03 17:21:17;;;;;;;33.33;11.67;;;;;;;7.70;90.93;99975.94;5021496;28;20454;-43
2022/01/03 17:23:50;;;;;;;31.00;10.93;;;;;;;7.74;91.19;99977.16;5022223;28;20471;-42
2022/01/03 17:26:19;;;;;;;42.10;10.10;;;;;;;7.77;91.88;99976.78;5020655;28;20535;-43
2022/01/03 17:28:47;;;;;;;33.87;11.03;;;;;;;7.79;91.99;99974.72;5020885;28;20468;-45
2022/01/03 17:31:15;;;;;;;29.17;10.57;;;;;;;7.77;92.39;99968.81;5021283;28;20817;-42
2022/01/03 17:33:44;;;;;;;32.50;11.13;;;;;;;7.80;93.03;99967.59;5020935;28;20436;-44
2022/01/03 17:36:12;;;;;;;29.30;10.67;;;;;;;7.78;93.53;99966.97;5020968;28;20484;-41
2022/01/03 17:38:40;;;;;;;27.37;10.53;;;;;;;7.75;93.43;99967.38;5021267;28;20457;-42
2022/01/03 17:41:08;;;;;;;32.70;11.30;;;;;;;7.77;93.26;99960.03;5021907;28;20438;-43
2022/01/03 17:43:39;;;;;;;30.87;11.07;;;;;;;7.78;93.59;99943.09;5020924;28;20444;-43
2022/01/03 17:46:07;;;;;;;39.70;11.57;;;;;;;7.79;93.55;99950.03;5019345;28;20452;-42
2022/01/03 17:48:34;;;;;;;25.47;9.80;;;;;;;7.77;93.23;99946.75;5021125;28;20532;-44
2022/01/03 17:51:04;;;;;;;29.77;12.30;;;;;;;7.77;92.82;99947.56;5021802;28;20433;-44
2022/01/03 17:53:32;;;;;;;29.23;9.97;;;;;;;7.79;93.26;99950.84;5020738;28;20527;-42
2022/01/03 17:55:59;;;;;;;38.60;11.83;;;;;;;7.78;93.31;99932.47;5020640;28;20449;-42
2022/01/03 17:58:27;;;;;;;31.27;11.57;;;;;;;7.80;92.73;99941.88;5019645;28;20461;-44
2022/01/03 18:00:55;;;;;;;28.80;12.23;;;;;;;7.77;92.43;99934.31;5020388;28;20872;-43
2022/01/03 18:03:22;;;;;;;30.93;10.67;;;;;;;7.80;92.11;99933.09;5019625;28;20491;-43
2022/01/03 18:05:50;;;;;;;47.70;11.60;;;;;;;7.78;91.78;99935.94;5020299;28;20461;-45
2022/01/03 18:08:19;;;;;;;35.27;12.60;;;;;;;7.78;90.80;99930.66;5020403;28;20471;-43
2022/01/03 18:10:47;;;;;;;28.90;11.40;;;;;;;7.78;90.44;99924.50;5021298;28;20442;-43
2022/01/03 18:13:16;;;;;;;27.07;10.63;;;;;;;7.78;90.23;99927.16;5020143;28;20447;-43
2022/01/03 18:15:44;;;;;;;32.50;12.00;;;;;;;7.76;90.10;99927.34;5020970;28;20454;-45
2022/01/03 18:18:12;;;;;;;39.47;11.30;;;;;;;7.77;90.54;99920.22;5020319;28;20473;-46
2022/01/03 18:20:39;;;;;;;38.07;11.80;;;;;;;7.77;91.01;99914.91;5020396;28;20774;-43
2022/01/03 18:23:07;;;;;;;35.07;10.80;;;;;;;7.76;90.98;99916.72;5020718;28;20437;-42
2022/01/03 18:25:36;;;;;;;30.60;11.50;;;;;;;7.77;90.99;99909.59;5020837;28;20846;-45
2022/01/03 18:28:04;;;;;;;40.63;12.30;;;;;;;7.78;91.77;99913.91;5020130;28;20905;-44
2022/01/03 18:30:32;;;;;;;38.50;11.77;;;;;;;7.80;91.45;99915.34;5020647;28;20441;-42
2022/01/03 18:33:00;;;;;;;35.93;10.03;;;;;;;7.80;92.03;99911.84;5020016;28;20487;-42
2022/01/03 18:35:27;;;;;;;36.30;13.80;;;;;;;7.83;91.79;99911.44;5020250;28;20455;-43
2022/01/03 18:37:55;;;;;;;34.90;12.33;;;;;;;7.83;92.17;99906.16;5019961;28;21030;-44
2022/01/03 18:40:23;;;;;;;35.20;10.67;;;;;;;7.87;93.04;99903.91;5021094;28;20528;-42
2022/01/03 18:42:52;;;;;;;32.00;10.83;;;;;;;7.85;92.99;99890.84;5019964;28;21033;-44
2022/01/03 18:45:19;;;;;;;30.63;11.23;;;;;;;7.87;92.93;99906.56;5019742;28;20460;-42
2022/01/03 18:47:51;;;;;;;31.73;11.17;;;;;;;7.87;93.03;99891.47;5019332;28;20456;-47
2022/01/03 18:50:19;;;;;;;32.53;12.93;;;;;;;7.85;93.02;99887.38;5020132;28;20468;-42
2022/01/03 18:52:47;;;;;;;38.13;11.90;;;;;;;7.87;92.94;99895.97;5020061;28;20436;-42
2022/01/03 18:55:15;;;;;;;31.20;10.73;;;;;;;7.86;92.78;99889.00;5019644;28;20991;-42